createdAt,value
2018-03-24T00:00:28.493Z,988.83
2018-03-24T00:01:28.465Z,988.79
2018-03-24T00:02:28.440Z,988.77
2018-03-24T00:03:28.423Z,988.78
2018-03-24T00:04:28.389Z,988.79
2018-03-24T00:05:28.365Z,988.75
2018-03-24T00:06:28.329Z,988.72
2018-03-24T00:07:28.307Z,988.76
2018-03-24T00:08:28.284Z,988.67
2018-03-24T00:09:28.254Z,988.67
2018-03-24T00:10:28.233Z,988.71
2018-03-24T00:11:28.199Z,988.66
2018-03-24T00:12:28.176Z,988.66
2018-03-24T00:13:28.150Z,988.69
2018-03-24T00:14:28.125Z,988.68
2018-03-24T00:15:28.101Z,988.69
2018-03-24T00:16:28.063Z,988.64
2018-03-24T00:17:28.044Z,988.65
2018-03-24T00:18:28.020Z,988.72
2018-03-24T00:19:27.982Z,988.68
2018-03-24T00:20:27.964Z,988.68
2018-03-24T00:21:27.935Z,988.64
2018-03-24T00:22:27.916Z,988.64
2018-03-24T00:23:27.885Z,988.61
2018-03-24T00:24:27.854Z,988.63
2018-03-24T00:25:27.835Z,988.63
2018-03-24T00:26:27.799Z,988.63
2018-03-24T00:27:27.770Z,988.66
2018-03-24T00:28:27.747Z,988.64
2018-03-24T00:29:27.717Z,988.66
2018-03-24T00:30:27.695Z,988.59
2018-03-24T00:31:27.671Z,988.61
2018-03-24T00:32:27.633Z,988.56
2018-03-24T00:33:27.617Z,988.61
2018-03-24T00:34:27.604Z,988.62
2018-03-24T00:35:27.561Z,988.58
2018-03-24T00:36:27.532Z,988.58
2018-03-24T00:37:27.505Z,988.61
2018-03-24T00:38:27.483Z,988.57
2018-03-24T00:39:27.448Z,988.57
2018-03-24T00:40:27.431Z,988.54
2018-03-24T00:41:27.400Z,988.53
2018-03-24T00:42:27.370Z,988.52
2018-03-24T00:43:27.393Z,988.53
2018-03-24T00:44:27.313Z,988.52
2018-03-24T00:45:27.291Z,988.49
2018-03-24T00:46:27.261Z,988.51
2018-03-24T00:47:27.244Z,988.53
2018-03-24T00:48:27.205Z,988.48
2018-03-24T00:49:27.178Z,988.48
2018-03-24T00:50:27.155Z,988.48
2018-03-24T00:51:27.124Z,988.47
2018-03-24T00:52:27.110Z,988.49
2018-03-24T00:53:27.083Z,988.51
2018-03-24T00:54:27.048Z,988.51
2018-03-24T00:55:27.030Z,988.50
2018-03-24T00:56:26.996Z,988.49
2018-03-24T00:57:26.964Z,988.50
2018-03-24T00:58:26.943Z,988.48
2018-03-24T00:59:26.910Z,988.49
2018-03-24T01:00:26.885Z,988.46
2018-03-24T01:01:26.866Z,988.47
2018-03-24T01:02:26.831Z,988.44
2018-03-24T01:03:26.804Z,988.43
2018-03-24T01:04:26.781Z,988.43
2018-03-24T01:05:26.751Z,988.48
2018-03-24T01:06:26.722Z,988.47
2018-03-24T01:07:26.715Z,988.44
2018-03-24T01:08:26.667Z,988.50
2018-03-24T01:09:26.648Z,988.46
2018-03-24T01:10:26.608Z,988.45
2018-03-24T01:11:26.584Z,988.50
2018-03-24T01:12:26.567Z,988.49
2018-03-24T01:13:26.533Z,988.50
2018-03-24T01:14:26.515Z,988.51
2018-03-24T01:15:26.485Z,988.54
2018-03-24T01:16:26.447Z,988.49
2018-03-24T01:17:26.420Z,988.51
2018-03-24T01:18:26.395Z,988.47
2018-03-24T01:19:26.368Z,988.51
2018-03-24T01:20:26.356Z,988.49
2018-03-24T01:21:26.311Z,988.51
2018-03-24T01:22:26.295Z,988.49
2018-03-24T01:23:26.265Z,988.55
2018-03-24T01:24:26.231Z,988.47
2018-03-24T01:25:26.210Z,988.48
2018-03-24T01:26:26.188Z,988.47
2018-03-24T01:27:26.148Z,988.49
2018-03-24T01:28:26.131Z,988.49
2018-03-24T01:29:26.094Z,988.46
2018-03-24T01:30:26.074Z,988.51
2018-03-24T01:31:26.048Z,988.49
2018-03-24T01:32:26.015Z,988.48
2018-03-24T01:33:25.989Z,988.46
2018-03-24T01:34:25.964Z,988.50
2018-03-24T01:35:25.941Z,988.48
2018-03-24T01:36:25.906Z,988.50
2018-03-24T01:37:25.882Z,988.47
2018-03-24T01:38:25.849Z,988.51
2018-03-24T01:39:25.830Z,988.50
2018-03-24T01:40:25.797Z,988.54
2018-03-24T01:41:25.774Z,988.55
2018-03-24T01:42:25.739Z,988.58
2018-03-24T01:43:25.714Z,988.55
2018-03-24T01:44:25.696Z,988.53
2018-03-24T01:45:25.656Z,988.58
2018-03-24T01:46:25.662Z,988.56
2018-03-24T01:47:25.608Z,988.59
2018-03-24T01:48:25.579Z,988.59
2018-03-24T01:49:25.559Z,988.62
2018-03-24T01:50:25.522Z,988.61
2018-03-24T01:51:25.494Z,988.64
2018-03-24T01:52:25.467Z,988.60
2018-03-24T01:53:25.439Z,988.57
2018-03-24T01:54:25.416Z,988.61
2018-03-24T01:55:25.391Z,988.61
2018-03-24T01:56:25.358Z,988.54
2018-03-24T01:57:25.327Z,988.57
2018-03-24T01:58:25.305Z,988.58
2018-03-24T01:59:25.281Z,988.56
2018-03-24T02:00:25.253Z,988.54
2018-03-24T02:01:25.245Z,988.55
2018-03-24T02:02:25.191Z,988.57
2018-03-24T02:03:25.168Z,988.60
2018-03-24T02:04:25.164Z,988.53
2018-03-24T02:05:25.122Z,988.54
2018-03-24T02:06:25.098Z,988.53
2018-03-24T02:07:25.059Z,988.46
2018-03-24T02:08:25.035Z,988.50
2018-03-24T02:09:25.011Z,988.49
2018-03-24T02:10:24.976Z,988.47
2018-03-24T02:11:24.954Z,988.47
2018-03-24T02:12:24.927Z,988.45
2018-03-24T02:13:24.912Z,988.37
2018-03-24T02:14:24.864Z,988.44
2018-03-24T02:15:24.846Z,988.40
2018-03-24T02:16:24.809Z,988.44
2018-03-24T02:17:24.783Z,988.41
2018-03-24T02:18:24.761Z,988.42
2018-03-24T02:19:24.740Z,988.37
2018-03-24T02:20:24.698Z,988.38
2018-03-24T02:21:24.679Z,988.37
2018-03-24T02:22:24.645Z,988.33
2018-03-24T02:23:24.627Z,988.37
2018-03-24T02:24:24.590Z,988.35
2018-03-24T02:25:24.569Z,988.34
2018-03-24T02:26:24.544Z,988.33
2018-03-24T02:27:24.520Z,988.31
2018-03-24T02:28:24.489Z,988.34
2018-03-24T02:29:24.454Z,988.32
2018-03-24T02:30:24.474Z,988.35
2018-03-24T02:31:24.410Z,988.34
2018-03-24T02:32:24.367Z,988.38
2018-03-24T02:33:24.356Z,988.36
2018-03-24T02:34:24.314Z,988.36
2018-03-24T02:35:24.286Z,988.36
2018-03-24T02:36:24.272Z,988.33
2018-03-24T02:37:24.248Z,988.38
2018-03-24T02:38:24.217Z,988.34
2018-03-24T02:39:24.186Z,988.32
2018-03-24T02:40:24.164Z,988.37
2018-03-24T02:41:24.124Z,988.33
2018-03-24T02:42:24.101Z,988.30
2018-03-24T02:43:24.097Z,988.28
2018-03-24T02:44:24.049Z,988.29
2018-03-24T02:45:24.028Z,988.30
2018-03-24T02:46:23.989Z,988.28
2018-03-24T02:47:23.979Z,988.28
2018-03-24T02:48:23.930Z,988.27
2018-03-24T02:49:23.909Z,988.28
2018-03-24T02:50:23.882Z,988.26
2018-03-24T02:51:23.855Z,988.28
2018-03-24T02:52:23.825Z,988.25
2018-03-24T02:53:23.805Z,988.23
2018-03-24T02:54:23.765Z,988.24
2018-03-24T02:55:23.747Z,988.28
2018-03-24T02:56:23.723Z,988.28
2018-03-24T02:57:23.700Z,988.27
2018-03-24T02:58:23.659Z,988.30
2018-03-24T02:59:23.631Z,988.27
2018-03-24T03:00:23.603Z,988.29
2018-03-24T03:01:23.575Z,988.28
2018-03-24T03:02:23.554Z,988.28
2018-03-24T03:03:23.519Z,988.35
2018-03-24T03:04:23.493Z,988.32
2018-03-24T03:05:23.470Z,988.35
2018-03-24T03:06:23.435Z,988.38
2018-03-24T03:07:23.413Z,988.35
2018-03-24T03:08:23.392Z,988.36
2018-03-24T03:09:23.351Z,988.35
2018-03-24T03:10:23.337Z,988.34
2018-03-24T03:11:23.299Z,988.37
2018-03-24T03:12:23.286Z,988.39
2018-03-24T03:13:23.257Z,988.37
2018-03-24T03:14:23.217Z,988.40
2018-03-24T03:15:23.193Z,988.39
2018-03-24T03:16:23.166Z,988.42
2018-03-24T03:17:23.137Z,988.42
2018-03-24T03:18:23.105Z,988.37
2018-03-24T03:19:23.084Z,988.42
2018-03-24T03:20:23.054Z,988.42
2018-03-24T03:21:23.025Z,988.44
2018-03-24T03:22:22.994Z,988.42
2018-03-24T03:23:22.978Z,988.42
2018-03-24T03:24:22.934Z,988.42
2018-03-24T03:25:22.918Z,988.44
2018-03-24T03:26:22.885Z,988.42
2018-03-24T03:27:22.858Z,988.42
2018-03-24T03:28:22.839Z,988.38
2018-03-24T03:29:22.800Z,988.39
2018-03-24T03:30:22.792Z,988.40
2018-03-24T03:31:22.752Z,988.39
2018-03-24T03:32:22.723Z,988.39
2018-03-24T03:33:22.698Z,988.40
2018-03-24T03:34:22.660Z,988.37
2018-03-24T03:35:22.646Z,988.41
2018-03-24T03:36:22.609Z,988.42
2018-03-24T03:37:22.586Z,988.41
2018-03-24T03:38:22.558Z,988.42
2018-03-24T03:39:22.524Z,988.42
2018-03-24T03:40:22.499Z,988.41
2018-03-24T03:41:22.476Z,988.41
2018-03-24T03:42:22.446Z,988.43
2018-03-24T03:43:22.411Z,988.42
2018-03-24T03:44:22.388Z,988.38
2018-03-24T03:45:22.360Z,988.39
2018-03-24T03:46:22.337Z,988.44
2018-03-24T03:47:22.309Z,988.42
2018-03-24T03:48:22.277Z,988.39
2018-03-24T03:49:22.250Z,988.37
2018-03-24T03:50:22.221Z,988.34
2018-03-24T03:51:22.196Z,988.40
2018-03-24T03:52:22.171Z,988.39
2018-03-24T03:53:22.143Z,988.40
2018-03-24T03:54:22.116Z,988.38
2018-03-24T03:55:22.087Z,988.39
2018-03-24T03:56:22.059Z,988.42
2018-03-24T03:57:22.030Z,988.37
2018-03-24T03:58:22.001Z,988.38
2018-03-24T03:59:21.980Z,988.42
2018-03-24T04:00:21.952Z,988.41
2018-03-24T04:01:21.919Z,988.37
2018-03-24T04:02:21.891Z,988.32
2018-03-24T04:03:21.866Z,988.37
2018-03-24T04:04:21.837Z,988.36
2018-03-24T04:05:21.805Z,988.34
2018-03-24T04:06:21.781Z,988.33
2018-03-24T04:07:21.751Z,988.31
2018-03-24T04:08:21.725Z,988.33
2018-03-24T04:09:21.697Z,988.31
2018-03-24T04:10:21.687Z,988.34
2018-03-24T04:11:21.648Z,988.35
2018-03-24T04:12:21.620Z,988.36
2018-03-24T04:13:21.594Z,988.38
2018-03-24T04:14:21.566Z,988.35
2018-03-24T04:15:21.549Z,988.38
2018-03-24T04:16:21.511Z,988.36
2018-03-24T04:17:21.470Z,988.35
2018-03-24T04:18:21.448Z,988.36
2018-03-24T04:19:21.434Z,988.33
2018-03-24T04:20:21.391Z,988.35
2018-03-24T04:21:21.370Z,988.34
2018-03-24T04:22:21.340Z,988.35
2018-03-24T04:23:21.313Z,988.37
2018-03-24T04:24:21.283Z,988.37
2018-03-24T04:25:21.252Z,988.36
2018-03-24T04:26:21.227Z,988.36
2018-03-24T04:27:21.209Z,988.38
2018-03-24T04:28:21.176Z,988.39
2018-03-24T04:29:21.150Z,988.39
2018-03-24T04:30:21.118Z,988.42
2018-03-24T04:31:21.092Z,988.41
2018-03-24T04:32:21.057Z,988.43
2018-03-24T04:33:21.043Z,988.39
2018-03-24T04:34:21.008Z,988.40
2018-03-24T04:35:20.987Z,988.42
2018-03-24T04:36:20.949Z,988.42
2018-03-24T04:37:20.931Z,988.41
2018-03-24T04:38:20.893Z,988.39
2018-03-24T04:39:20.869Z,988.41
2018-03-24T04:40:20.844Z,988.44
2018-03-24T04:41:20.812Z,988.46
2018-03-24T04:42:20.793Z,988.44
2018-03-24T04:43:20.759Z,988.46
2018-03-24T04:44:20.731Z,988.47
2018-03-24T04:45:20.707Z,988.46
2018-03-24T04:46:20.679Z,988.49
2018-03-24T04:47:20.646Z,988.46
2018-03-24T04:48:20.618Z,988.46
2018-03-24T04:49:20.595Z,988.43
2018-03-24T04:50:20.567Z,988.45
2018-03-24T04:51:20.538Z,988.44
2018-03-24T04:52:20.518Z,988.47
2018-03-24T04:53:20.486Z,988.46
2018-03-24T04:54:20.448Z,988.45
2018-03-24T04:55:20.427Z,988.49
2018-03-24T04:56:20.401Z,988.45
2018-03-24T04:57:20.366Z,988.45
2018-03-24T04:58:20.345Z,988.46
2018-03-24T04:59:20.319Z,988.46
2018-03-24T05:00:20.288Z,988.43
2018-03-24T05:01:20.264Z,988.47
2018-03-24T05:02:20.236Z,988.45
2018-03-24T05:03:20.202Z,988.48
2018-03-24T05:04:20.175Z,988.46
2018-03-24T05:05:20.145Z,988.44
2018-03-24T05:06:20.125Z,988.45
2018-03-24T05:07:20.094Z,988.47
2018-03-24T05:08:20.060Z,988.41
2018-03-24T05:09:20.049Z,988.43
2018-03-24T05:10:20.009Z,988.44
2018-03-24T05:11:19.978Z,988.39
2018-03-24T05:12:19.959Z,988.39
2018-03-24T05:13:19.934Z,988.38
2018-03-24T05:14:19.897Z,988.37
2018-03-24T05:15:19.873Z,988.38
2018-03-24T05:16:19.847Z,988.38
2018-03-24T05:17:19.825Z,988.41
2018-03-24T05:18:19.787Z,988.40
2018-03-24T05:19:19.758Z,988.41
2018-03-24T05:20:19.741Z,988.36
2018-03-24T05:21:19.710Z,988.37
2018-03-24T05:22:19.685Z,988.35
2018-03-24T05:23:19.654Z,988.36
2018-03-24T05:24:19.627Z,988.36
2018-03-24T05:25:19.596Z,988.38
2018-03-24T05:26:19.563Z,988.40
2018-03-24T05:27:19.536Z,988.37
2018-03-24T05:28:19.515Z,988.39
2018-03-24T05:29:19.481Z,988.38
2018-03-24T05:30:19.454Z,988.40
2018-03-24T05:31:19.426Z,988.38
2018-03-24T05:32:19.409Z,988.36
2018-03-24T05:33:19.370Z,988.41
2018-03-24T05:34:19.341Z,988.42
2018-03-24T05:35:19.324Z,988.42
2018-03-24T05:36:19.291Z,988.41
2018-03-24T05:37:19.265Z,988.42
2018-03-24T05:38:19.226Z,988.42
2018-03-24T05:39:19.206Z,988.45
2018-03-24T05:40:19.175Z,988.43
2018-03-24T05:41:19.155Z,988.42
2018-03-24T05:42:19.118Z,988.42
2018-03-24T05:43:19.110Z,988.40
2018-03-24T05:44:19.070Z,988.39
2018-03-24T05:45:19.032Z,988.42
2018-03-24T05:46:19.022Z,988.42
2018-03-24T05:47:18.983Z,988.40
2018-03-24T05:48:18.962Z,988.44
2018-03-24T05:49:18.930Z,988.44
2018-03-24T05:50:18.899Z,988.44
2018-03-24T05:51:18.866Z,988.41
2018-03-24T05:52:18.849Z,988.48
2018-03-24T05:53:18.817Z,988.47
2018-03-24T05:54:18.795Z,988.50
2018-03-24T05:55:18.761Z,988.50
2018-03-24T05:56:18.736Z,988.54
2018-03-24T05:57:18.713Z,988.49
2018-03-24T05:58:18.681Z,988.54
2018-03-24T05:59:18.649Z,988.57
2018-03-24T06:00:18.626Z,988.58
2018-03-24T06:01:18.597Z,988.56
2018-03-24T06:02:18.571Z,988.57
2018-03-24T06:03:18.543Z,988.59
2018-03-24T06:04:18.513Z,988.60
2018-03-24T06:05:18.486Z,988.59
2018-03-24T06:06:18.462Z,988.62
2018-03-24T06:07:18.425Z,988.63
2018-03-24T06:08:18.464Z,988.62
2018-03-24T06:09:18.380Z,988.61
2018-03-24T06:10:18.337Z,988.68
2018-03-24T06:11:18.351Z,988.65
2018-03-24T06:12:18.296Z,988.64
2018-03-24T06:13:18.260Z,988.70
2018-03-24T06:14:18.244Z,988.71
2018-03-24T06:15:18.199Z,988.74
2018-03-24T06:16:18.186Z,988.73
2018-03-24T06:17:18.155Z,988.69
2018-03-24T06:18:18.122Z,988.68
2018-03-24T06:19:18.095Z,988.72
2018-03-24T06:20:18.090Z,988.70
2018-03-24T06:21:18.048Z,988.65
2018-03-24T06:22:18.015Z,988.68
2018-03-24T06:23:17.995Z,988.64
2018-03-24T06:24:17.965Z,988.69
2018-03-24T06:25:17.932Z,988.68
2018-03-24T06:26:17.910Z,988.70
2018-03-24T06:27:17.875Z,988.67
2018-03-24T06:28:17.906Z,988.70
2018-03-24T06:29:17.820Z,988.67
2018-03-24T06:30:17.803Z,988.68
2018-03-24T06:31:17.773Z,988.70
2018-03-24T06:32:17.739Z,988.68
2018-03-24T06:33:17.718Z,988.66
2018-03-24T06:34:17.694Z,988.65
2018-03-24T06:35:17.653Z,988.66
2018-03-24T06:36:17.637Z,988.64
2018-03-24T06:37:17.599Z,988.68
2018-03-24T06:38:17.582Z,988.70
2018-03-24T06:39:17.556Z,988.72
2018-03-24T06:40:17.526Z,988.73
2018-03-24T06:41:17.493Z,988.70
2018-03-24T06:42:17.464Z,988.74
2018-03-24T06:43:17.443Z,988.67
2018-03-24T06:44:17.404Z,988.71
2018-03-24T06:45:17.390Z,988.68
2018-03-24T06:46:17.355Z,988.69
2018-03-24T06:47:17.323Z,988.72
2018-03-24T06:48:17.304Z,988.72
2018-03-24T06:49:17.275Z,988.75
2018-03-24T06:50:17.272Z,988.73
2018-03-24T06:51:17.227Z,988.75
2018-03-24T06:52:17.195Z,988.77
2018-03-24T06:53:17.173Z,988.72
2018-03-24T06:54:17.144Z,988.71
2018-03-24T06:55:17.117Z,988.71
2018-03-24T06:56:17.086Z,988.74
2018-03-24T06:57:17.059Z,988.77
2018-03-24T06:58:17.036Z,988.76
2018-03-24T06:59:17.004Z,988.76
2018-03-24T07:00:16.975Z,988.78
2018-03-24T07:01:16.951Z,988.78
2018-03-24T07:02:16.928Z,988.79
2018-03-24T07:03:16.894Z,988.83
2018-03-24T07:04:16.871Z,988.80
2018-03-24T07:05:16.847Z,988.84
2018-03-24T07:06:16.812Z,988.84
2018-03-24T07:07:16.789Z,988.84
2018-03-24T07:08:16.767Z,988.84
2018-03-24T07:09:16.727Z,988.84
2018-03-24T07:10:16.724Z,988.83
2018-03-24T07:11:16.688Z,988.87
2018-03-24T07:12:16.649Z,988.88
2018-03-24T07:13:16.621Z,988.87
2018-03-24T07:14:16.594Z,988.89
2018-03-24T07:15:16.580Z,988.93
2018-03-24T07:16:16.542Z,988.91
2018-03-24T07:17:16.517Z,988.93
2018-03-24T07:18:16.499Z,988.92
2018-03-24T07:19:16.461Z,988.99
2018-03-24T07:20:16.439Z,988.93
2018-03-24T07:21:16.421Z,988.94
2018-03-24T07:22:16.504Z,988.92
2018-03-24T07:23:16.358Z,988.93
2018-03-24T07:24:16.322Z,988.95
2018-03-24T07:25:16.306Z,988.97
2018-03-24T07:26:16.281Z,988.96
2018-03-24T07:27:16.241Z,988.99
2018-03-24T07:28:16.211Z,988.95
2018-03-24T07:29:16.193Z,988.91
2018-03-24T07:30:16.161Z,988.96
2018-03-24T07:31:16.140Z,988.96
2018-03-24T07:32:16.132Z,988.96
2018-03-24T07:33:16.114Z,988.94
2018-03-24T07:34:16.102Z,988.97
2018-03-24T07:35:16.045Z,988.96
2018-03-24T07:36:16.002Z,988.97
2018-03-24T07:37:15.993Z,989.01
2018-03-24T07:38:15.945Z,988.97
2018-03-24T07:39:15.924Z,989.02
2018-03-24T07:40:15.898Z,989.02
2018-03-24T07:41:15.899Z,989.02
2018-03-24T07:42:15.840Z,989.08
2018-03-24T07:43:15.828Z,989.07
2018-03-24T07:44:15.794Z,989.05
2018-03-24T07:45:15.765Z,989.05
2018-03-24T07:46:15.733Z,989.09
2018-03-24T07:47:15.703Z,989.07
2018-03-24T07:48:15.682Z,989.08
2018-03-24T07:49:15.661Z,989.07
2018-03-24T07:50:15.621Z,989.10
2018-03-24T07:51:15.594Z,989.10
2018-03-24T07:52:15.580Z,989.10
2018-03-24T07:53:15.544Z,989.11
2018-03-24T07:54:15.526Z,989.10
2018-03-24T07:55:15.494Z,989.09
2018-03-24T07:56:15.456Z,989.11
2018-03-24T07:57:15.434Z,989.12
2018-03-24T07:58:15.408Z,989.13
2018-03-24T07:59:15.380Z,989.17
2018-03-24T08:00:15.363Z,989.16
2018-03-24T08:01:15.326Z,989.16
2018-03-24T08:02:15.294Z,989.17
2018-03-24T08:03:15.332Z,989.16
2018-03-24T08:04:15.255Z,989.19
2018-03-24T08:05:15.214Z,989.23
2018-03-24T08:06:15.189Z,989.22
2018-03-24T08:07:15.156Z,989.24
2018-03-24T08:08:15.132Z,989.20
2018-03-24T08:09:15.117Z,989.20
2018-03-24T08:10:15.079Z,989.19
2018-03-24T08:11:15.053Z,989.23
2018-03-24T08:12:15.024Z,989.22
2018-03-24T08:13:14.998Z,989.18
2018-03-24T08:14:14.986Z,989.22
2018-03-24T08:15:14.952Z,989.20
2018-03-24T08:16:14.922Z,989.21
2018-03-24T08:17:14.887Z,989.22
2018-03-24T08:18:14.859Z,989.26
2018-03-24T08:19:14.849Z,989.27
2018-03-24T08:20:14.808Z,989.28
2018-03-24T08:21:14.785Z,989.26
2018-03-24T08:22:14.820Z,989.30
2018-03-24T08:23:14.728Z,989.31
2018-03-24T08:24:14.760Z,989.29
2018-03-24T08:25:14.697Z,989.27
2018-03-24T08:26:14.650Z,989.26
2018-03-24T08:27:14.626Z,989.26
2018-03-24T08:28:14.593Z,989.28
2018-03-24T08:29:14.569Z,989.27
2018-03-24T08:30:14.536Z,989.29
2018-03-24T08:31:14.515Z,989.30
2018-03-24T08:32:14.504Z,989.30
2018-03-24T08:33:14.535Z,989.27
2018-03-24T08:34:14.490Z,989.31
2018-03-24T08:35:14.422Z,989.34
2018-03-24T08:36:14.383Z,989.31
2018-03-24T08:37:14.381Z,989.33
2018-03-24T08:38:14.393Z,989.32
2018-03-24T08:39:14.321Z,989.31
2018-03-24T08:40:14.300Z,989.34
2018-03-24T08:41:14.310Z,989.35
2018-03-24T08:42:14.301Z,989.35
2018-03-24T08:43:14.225Z,989.34
2018-03-24T08:44:14.195Z,989.34
2018-03-24T08:45:14.206Z,989.30
2018-03-24T08:46:14.158Z,989.30
2018-03-24T08:47:14.084Z,989.32
2018-03-24T08:48:14.062Z,989.26
2018-03-24T08:49:14.072Z,989.30
2018-03-24T08:50:14.047Z,989.28
2018-03-24T08:51:13.981Z,989.28
2018-03-24T08:52:13.943Z,989.29
2018-03-24T08:53:13.956Z,989.35
2018-03-24T08:54:13.902Z,989.35
2018-03-24T08:55:13.883Z,989.37
2018-03-24T08:56:13.849Z,989.35
2018-03-24T08:57:13.826Z,989.38
2018-03-24T08:58:13.798Z,989.38
2018-03-24T08:59:13.767Z,989.41
2018-03-24T09:00:13.796Z,989.42
2018-03-24T09:01:13.715Z,989.35
2018-03-24T09:02:13.681Z,989.42
2018-03-24T09:03:13.655Z,989.38
2018-03-24T09:04:13.625Z,989.38
2018-03-24T09:05:13.611Z,989.42
2018-03-24T09:06:13.592Z,989.45
2018-03-24T09:07:13.559Z,989.45
2018-03-24T09:08:13.520Z,989.42
2018-03-24T09:09:13.495Z,989.42
2018-03-24T09:10:13.470Z,989.42
2018-03-24T09:11:13.445Z,989.45
2018-03-24T09:12:13.425Z,989.48
2018-03-24T09:13:13.387Z,989.44
2018-03-24T09:14:13.368Z,989.46
2018-03-24T09:15:13.333Z,989.47
2018-03-24T09:16:13.315Z,989.49
2018-03-24T09:17:13.280Z,989.48
2018-03-24T09:18:13.255Z,989.48
2018-03-24T09:19:13.231Z,989.52
2018-03-24T09:20:13.211Z,989.49
2018-03-24T09:21:13.180Z,989.50
2018-03-24T09:22:13.160Z,989.54
2018-03-24T09:23:13.140Z,989.48
2018-03-24T09:24:13.095Z,989.45
2018-03-24T09:25:13.073Z,989.50
2018-03-24T09:26:13.127Z,989.52
2018-03-24T09:27:13.025Z,989.48
2018-03-24T09:28:12.996Z,989.54
2018-03-24T09:29:12.966Z,989.47
2018-03-24T09:30:12.940Z,989.56
2018-03-24T09:31:12.912Z,989.55
2018-03-24T09:32:12.888Z,989.52
2018-03-24T09:33:12.856Z,989.56
2018-03-24T09:34:12.848Z,989.49
2018-03-24T09:35:12.842Z,989.47
2018-03-24T09:36:12.809Z,989.44
2018-03-24T09:37:12.766Z,989.49
2018-03-24T09:38:12.738Z,989.45
2018-03-24T09:39:12.707Z,989.45
2018-03-24T09:40:12.673Z,989.45
2018-03-24T09:41:12.674Z,989.42
2018-03-24T09:42:12.644Z,989.44
2018-03-24T09:43:12.610Z,989.47
2018-03-24T09:44:12.618Z,989.48
2018-03-24T09:45:13.265Z,989.48
2018-03-24T09:46:12.565Z,989.42
2018-03-24T09:47:12.536Z,989.41
2018-03-24T09:48:12.505Z,989.41
2018-03-24T09:49:12.446Z,989.40
2018-03-24T09:50:12.425Z,989.37
2018-03-24T09:51:12.380Z,989.35
2018-03-24T09:52:12.361Z,989.38
2018-03-24T09:53:12.331Z,989.37
2018-03-24T09:54:12.334Z,989.43
2018-03-24T09:55:12.295Z,989.40
2018-03-24T09:56:12.256Z,989.41
2018-03-24T09:57:12.225Z,989.39
2018-03-24T09:58:12.207Z,989.36
2018-03-24T09:59:12.181Z,989.34
2018-03-24T10:00:12.157Z,989.37
2018-03-24T10:01:12.134Z,989.36
2018-03-24T10:02:12.096Z,989.38
2018-03-24T10:03:12.115Z,989.41
2018-03-24T10:04:12.066Z,989.35
2018-03-24T10:05:12.019Z,989.40
2018-03-24T10:06:12.001Z,989.38
2018-03-24T10:07:11.977Z,989.39
2018-03-24T10:08:11.938Z,989.40
2018-03-24T10:09:11.923Z,989.41
2018-03-24T10:10:11.886Z,989.39
2018-03-24T10:11:11.912Z,989.39
2018-03-24T10:12:11.836Z,989.32
2018-03-24T10:13:11.814Z,989.27
2018-03-24T10:14:11.816Z,989.35
2018-03-24T10:15:11.761Z,989.38
2018-03-24T10:16:11.745Z,989.30
2018-03-24T10:17:11.724Z,989.30
2018-03-24T10:18:11.721Z,989.30
2018-03-24T10:19:11.685Z,989.25
2018-03-24T10:20:11.655Z,989.29
2018-03-24T10:21:11.632Z,989.26
2018-03-24T10:22:11.606Z,989.23
2018-03-24T10:23:11.570Z,989.23
2018-03-24T10:24:11.562Z,989.20
2018-03-24T10:25:11.534Z,989.16
2018-03-24T10:26:11.496Z,989.20
2018-03-24T10:27:11.477Z,989.22
2018-03-24T10:28:11.452Z,989.22
2018-03-24T10:29:11.407Z,989.20
2018-03-24T10:30:11.405Z,989.15
2018-03-24T10:31:11.354Z,989.18
2018-03-24T10:32:11.324Z,989.14
2018-03-24T10:33:11.298Z,989.15
2018-03-24T10:34:11.274Z,989.15
2018-03-24T10:35:11.252Z,989.17
2018-03-24T10:36:11.267Z,989.09
2018-03-24T10:37:11.194Z,989.10
2018-03-24T10:38:11.177Z,989.17
2018-03-24T10:39:11.150Z,989.22
2018-03-24T10:40:11.128Z,989.16
2018-03-24T10:41:11.139Z,989.20
2018-03-24T10:42:11.072Z,989.18
2018-03-24T10:43:11.046Z,989.22
2018-03-24T10:44:11.017Z,989.22
2018-03-24T10:45:10.997Z,989.22
2018-03-24T10:46:10.970Z,989.23
2018-03-24T10:47:10.940Z,989.25
2018-03-24T10:48:10.922Z,989.22
2018-03-24T10:49:10.896Z,989.18
2018-03-24T10:50:10.870Z,989.22
2018-03-24T10:51:10.882Z,989.20
2018-03-24T10:52:10.818Z,989.15
2018-03-24T10:53:10.839Z,989.14
2018-03-24T10:54:10.791Z,989.18
2018-03-24T10:55:10.810Z,989.15
2018-03-24T10:56:10.741Z,989.13
2018-03-24T10:57:10.716Z,989.16
2018-03-24T10:58:10.710Z,989.14
2018-03-24T10:59:10.683Z,989.08
2018-03-24T11:00:10.639Z,989.10
2018-03-24T11:01:10.593Z,989.15
2018-03-24T11:02:10.579Z,989.09
2018-03-24T11:03:10.565Z,989.10
2018-03-24T11:04:10.599Z,989.12
2018-03-24T11:05:10.501Z,989.09
2018-03-24T11:06:10.467Z,989.14
2018-03-24T11:07:10.485Z,989.11
2018-03-24T11:08:10.433Z,989.10
2018-03-24T11:09:10.424Z,989.06
2018-03-24T11:10:10.411Z,989.06
2018-03-24T11:11:10.368Z,989.09
2018-03-24T11:12:10.317Z,989.09
2018-03-24T11:13:10.297Z,989.06
2018-03-24T11:14:10.268Z,989.05
2018-03-24T11:15:10.259Z,989.02
2018-03-24T11:16:10.225Z,988.99
2018-03-24T11:17:10.201Z,988.99
2018-03-24T11:18:10.180Z,989.03
2018-03-24T11:19:10.162Z,988.99
2018-03-24T11:20:10.128Z,988.99
2018-03-24T11:21:10.117Z,988.98
2018-03-24T11:22:10.075Z,989.03
2018-03-24T11:23:10.054Z,988.98
2018-03-24T11:24:10.032Z,989.02
2018-03-24T11:25:10.022Z,989.04
2018-03-24T11:26:09.986Z,989.02
2018-03-24T11:27:09.960Z,989.01
2018-03-24T11:28:09.936Z,989.01
2018-03-24T11:29:09.919Z,989.00
2018-03-24T11:30:09.893Z,988.98
2018-03-24T11:31:09.858Z,988.97
2018-03-24T11:32:09.841Z,988.92
2018-03-24T11:33:09.830Z,988.93
2018-03-24T11:34:09.785Z,988.92
2018-03-24T11:35:09.766Z,988.95
2018-03-24T11:36:09.747Z,988.93
2018-03-24T11:37:09.716Z,988.93
2018-03-24T11:38:09.730Z,988.90
2018-03-24T11:39:09.673Z,988.98
2018-03-24T11:40:09.650Z,988.91
2018-03-24T11:41:09.631Z,988.94
2018-03-24T11:42:09.597Z,988.92
2018-03-24T11:43:09.571Z,988.92
2018-03-24T11:44:09.557Z,988.89
2018-03-24T11:45:09.543Z,988.91
2018-03-24T11:46:09.522Z,988.91
2018-03-24T11:47:09.522Z,988.91
2018-03-24T11:48:09.451Z,988.90
2018-03-24T11:49:09.435Z,988.94
2018-03-24T11:50:09.472Z,988.97
2018-03-24T11:51:09.382Z,988.94
2018-03-24T11:52:09.398Z,988.95
2018-03-24T11:53:09.345Z,988.99
2018-03-24T11:54:09.314Z,988.97
2018-03-24T11:55:09.295Z,988.93
2018-03-24T11:56:09.263Z,988.90
2018-03-24T11:57:09.244Z,988.88
2018-03-24T11:58:09.224Z,988.91
2018-03-24T11:59:09.217Z,988.82
2018-03-24T12:00:09.220Z,988.90
2018-03-24T12:01:09.177Z,988.91
2018-03-24T12:02:09.147Z,988.89
2018-03-24T12:03:09.127Z,988.89
2018-03-24T12:04:09.098Z,988.90
2018-03-24T12:05:09.076Z,988.90
2018-03-24T12:06:09.046Z,988.92
2018-03-24T12:07:09.009Z,988.93
2018-03-24T12:08:09.004Z,988.94
2018-03-24T12:09:08.987Z,988.92
2018-03-24T12:10:08.942Z,988.93
2018-03-24T12:11:08.936Z,988.92
2018-03-24T12:12:08.892Z,988.92
2018-03-24T12:13:08.873Z,988.93
2018-03-24T12:14:08.850Z,988.89
2018-03-24T12:15:08.829Z,988.92
2018-03-24T12:16:08.806Z,988.94
2018-03-24T12:17:08.785Z,988.90
2018-03-24T12:18:08.807Z,988.88
2018-03-24T12:19:08.787Z,988.87
2018-03-24T12:20:08.766Z,988.90
2018-03-24T12:21:08.732Z,988.87
2018-03-24T12:22:08.744Z,988.86
2018-03-24T12:23:08.704Z,988.83
2018-03-24T12:24:08.664Z,988.92
2018-03-24T12:25:08.642Z,988.88
2018-03-24T12:26:08.604Z,988.88
2018-03-24T12:27:08.578Z,988.88
2018-03-24T12:28:08.542Z,988.82